sensor_id;sensor_type;location;lat;lon;timestamp;P1;durP1;ratioP1;P2;durP2;ratioP2
65230;SDS011;51813;40.666;16.602;2023-08-12T00:01:09;6.68;;;5.68;;
65230;SDS011;51813;40.666;16.602;2023-08-12T00:03:35;6.43;;;5.45;;
65230;SDS011;51813;40.666;16.602;2023-08-12T00:06:00;7.00;;;5.60;;
65230;SDS011;51813;40.666;16.602;2023-08-12T00:08:27;6.05;;;5.22;;
65230;SDS011;51813;40.666;16.602;2023-08-12T00:10:54;5.90;;;5.15;;
65230;SDS011;51813;40.666;16.602;2023-08-12T00:13:19;6.93;;;5.45;;
65230;SDS011;51813;40.666;16.602;2023-08-12T00:15:45;6.68;;;5.22;;
65230;SDS011;51813;40.666;16.602;2023-08-12T00:18:11;6.22;;;5.15;;
65230;SDS011;51813;40.666;16.602;2023-08-12T00:20:37;7.00;;;5.10;;
65230;SDS011;51813;40.666;16.602;2023-08-12T00:23:03;5.90;;;4.60;;
65230;SDS011;51813;40.666;16.602;2023-08-12T00:25:29;5.43;;;4.43;;
65230;SDS011;51813;40.666;16.602;2023-08-12T00:27:55;5.82;;;4.43;;
65230;SDS011;51813;40.666;16.602;2023-08-12T00:30:20;5.28;;;4.50;;
65230;SDS011;51813;40.666;16.602;2023-08-12T00:32:46;4.90;;;4.28;;
65230;SDS011;51813;40.666;16.602;2023-08-12T00:35:12;6.03;;;4.30;;
65230;SDS011;51813;40.666;16.602;2023-08-12T00:37:37;4.28;;;3.85;;
65230;SDS011;51813;40.666;16.602;2023-08-12T00:40:03;6.05;;;4.18;;
65230;SDS011;51813;40.666;16.602;2023-08-12T00:42:30;5.47;;;4.00;;
65230;SDS011;51813;40.666;16.602;2023-08-12T00:44:56;4.70;;;3.95;;
65230;SDS011;51813;40.666;16.602;2023-08-12T00:47:23;4.88;;;3.80;;
65230;SDS011;51813;40.666;16.602;2023-08-12T00:49:49;5.28;;;3.78;;
65230;SDS011;51813;40.666;16.602;2023-08-12T00:52:15;4.35;;;3.67;;
65230;SDS011;51813;40.666;16.602;2023-08-12T00:54:43;4.95;;;3.80;;
65230;SDS011;51813;40.666;16.602;2023-08-12T00:57:09;4.57;;;3.40;;
65230;SDS011;51813;40.666;16.602;2023-08-12T00:59:35;4.93;;;3.60;;
65230;SDS011;51813;40.666;16.602;2023-08-12T01:02:02;4.28;;;3.60;;
65230;SDS011;51813;40.666;16.602;2023-08-12T01:04:29;4.43;;;4.00;;
65230;SDS011;51813;40.666;16.602;2023-08-12T01:06:55;4.78;;;3.70;;
65230;SDS011;51813;40.666;16.602;2023-08-12T01:09:20;5.03;;;3.42;;
65230;SDS011;51813;40.666;16.602;2023-08-12T01:16:49;4.40;;;3.38;;
65230;SDS011;51813;40.666;16.602;2023-08-12T01:19:42;5.15;;;3.70;;
65230;SDS011;51813;40.666;16.602;2023-08-12T01:22:08;4.00;;;3.30;;
65230;SDS011;51813;40.666;16.602;2023-08-12T01:24:39;4.43;;;3.60;;
65230;SDS011;51813;40.666;16.602;2023-08-12T01:29:33;4.60;;;3.45;;
65230;SDS011;51813;40.666;16.602;2023-08-12T01:34:43;4.05;;;3.50;;
65230;SDS011;51813;40.666;16.602;2023-08-12T01:37:23;4.15;;;3.35;;
65230;SDS011;51813;40.666;16.602;2023-08-12T01:39:52;3.75;;;3.20;;
65230;SDS011;51813;40.666;16.602;2023-08-12T01:42:20;4.57;;;3.65;;
65230;SDS011;51813;40.666;16.602;2023-08-12T01:44:46;3.97;;;3.40;;
65230;SDS011;51813;40.666;16.602;2023-08-12T01:47:14;4.05;;;3.33;;
65230;SDS011;51813;40.666;16.602;2023-08-12T01:49:40;4.05;;;3.42;;
65230;SDS011;51813;40.666;16.602;2023-08-12T01:52:05;4.65;;;3.42;;
65230;SDS011;51813;40.666;16.602;2023-08-12T01:54:31;4.10;;;3.47;;
65230;SDS011;51813;40.666;16.602;2023-08-12T01:57:02;5.82;;;4.15;;
65230;SDS011;51813;40.666;16.602;2023-08-12T01:59:33;4.68;;;3.63;;
65230;SDS011;51813;40.666;16.602;2023-08-12T02:01:59;4.38;;;3.50;;
65230;SDS011;51813;40.666;16.602;2023-08-12T02:04:25;5.30;;;3.80;;
65230;SDS011;51813;40.666;16.602;2023-08-12T02:06:51;6.68;;;4.60;;
65230;SDS011;51813;40.666;16.602;2023-08-12T02:09:17;6.13;;;4.35;;
65230;SDS011;51813;40.666;16.602;2023-08-12T02:11:43;6.18;;;4.57;;
65230;SDS011;51813;40.666;16.602;2023-08-12T02:14:09;5.68;;;4.30;;
65230;SDS011;51813;40.666;16.602;2023-08-12T02:16:35;4.95;;;3.83;;
65230;SDS011;51813;40.666;16.602;2023-08-12T02:19:00;5.75;;;4.35;;
65230;SDS011;51813;40.666;16.602;2023-08-12T02:21:26;4.82;;;3.85;;
65230;SDS011;51813;40.666;16.602;2023-08-12T02:23:52;5.30;;;4.45;;
65230;SDS011;51813;40.666;16.602;2023-08-12T02:26:18;4.68;;;3.85;;
65230;SDS011;51813;40.666;16.602;2023-08-12T02:28:43;5.88;;;4.40;;
65230;SDS011;51813;40.666;16.602;2023-08-12T02:31:09;5.25;;;4.05;;
65230;SDS011;51813;40.666;16.602;2023-08-12T02:33:35;5.30;;;4.35;;
65230;SDS011;51813;40.666;16.602;2023-08-12T02:36:00;5.07;;;4.43;;
65230;SDS011;51813;40.666;16.602;2023-08-12T02:38:26;4.93;;;4.30;;
65230;SDS011;51813;40.666;16.602;2023-08-12T02:40:52;5.32;;;4.50;;
65230;SDS011;51813;40.666;16.602;2023-08-12T02:43:17;5.97;;;4.35;;
65230;SDS011;51813;40.666;16.602;2023-08-12T02:45:43;5.07;;;4.20;;
65230;SDS011;51813;40.666;16.602;2023-08-12T02:48:09;5.95;;;4.80;;
65230;SDS011;51813;40.666;16.602;2023-08-12T02:50:35;5.15;;;4.35;;
65230;SDS011;51813;40.666;16.602;2023-08-12T02:53:02;5.10;;;4.55;;
65230;SDS011;51813;40.666;16.602;2023-08-12T02:55:27;5.65;;;4.90;;
65230;SDS011;51813;40.666;16.602;2023-08-12T02:57:54;4.85;;;4.35;;
65230;SDS011;51813;40.666;16.602;2023-08-12T03:00:20;5.40;;;4.70;;
65230;SDS011;51813;40.666;16.602;2023-08-12T03:02:46;5.43;;;4.80;;
65230;SDS011;51813;40.666;16.602;2023-08-12T03:05:12;5.90;;;4.55;;
65230;SDS011;51813;40.666;16.602;2023-08-12T03:07:38;5.55;;;4.88;;
65230;SDS011;51813;40.666;16.602;2023-08-12T03:10:04;5.80;;;4.80;;
65230;SDS011;51813;40.666;16.602;2023-08-12T03:12:30;5.93;;;4.80;;
65230;SDS011;51813;40.666;16.602;2023-08-12T03:14:56;6.00;;;4.47;;
65230;SDS011;51813;40.666;16.602;2023-08-12T03:17:22;5.30;;;4.80;;
65230;SDS011;51813;40.666;16.602;2023-08-12T03:19:47;6.47;;;4.60;;
65230;SDS011;51813;40.666;16.602;2023-08-12T03:22:14;5.93;;;5.10;;
65230;SDS011;51813;40.666;16.602;2023-08-12T03:24:40;6.38;;;4.75;;
65230;SDS011;51813;40.666;16.602;2023-08-12T03:27:05;4.97;;;4.40;;
65230;SDS011;51813;40.666;16.602;2023-08-12T03:29:31;4.60;;;4.18;;
65230;SDS011;51813;40.666;16.602;2023-08-12T03:31:57;5.35;;;4.45;;
65230;SDS011;51813;40.666;16.602;2023-08-12T03:34:23;5.88;;;4.70;;
65230;SDS011;51813;40.666;16.602;2023-08-12T03:36:48;5.22;;;4.55;;
65230;SDS011;51813;40.666;16.602;2023-08-12T03:39:15;5.90;;;5.10;;
65230;SDS011;51813;40.666;16.602;2023-08-12T03:41:41;5.45;;;4.82;;
65230;SDS011;51813;40.666;16.602;2023-08-12T03:44:07;6.57;;;4.50;;
65230;SDS011;51813;40.666;16.602;2023-08-12T03:46:33;5.20;;;4.65;;
65230;SDS011;51813;40.666;16.602;2023-08-12T03:48:59;5.25;;;4.70;;
65230;SDS011;51813;40.666;16.602;2023-08-12T03:51:25;6.32;;;5.00;;
65230;SDS011;51813;40.666;16.602;2023-08-12T03:53:50;5.30;;;4.80;;
65230;SDS011;51813;40.666;16.602;2023-08-12T03:56:16;6.10;;;5.28;;
65230;SDS011;51813;40.666;16.602;2023-08-12T03:58:42;5.50;;;5.00;;
65230;SDS011;51813;40.666;16.602;2023-08-12T04:01:08;6.43;;;5.55;;
65230;SDS011;51813;40.666;16.602;2023-08-12T04:03:34;6.45;;;5.00;;
65230;SDS011;51813;40.666;16.602;2023-08-12T04:05:59;6.18;;;5.13;;
65230;SDS011;51813;40.666;16.602;2023-08-12T04:08:25;6.40;;;5.15;;
65230;SDS011;51813;40.666;16.602;2023-08-12T04:10:51;6.50;;;5.18;;
65230;SDS011;51813;40.666;16.602;2023-08-12T04:13:17;6.60;;;4.93;;
65230;SDS011;51813;40.666;16.602;2023-08-12T04:15:47;7.53;;;5.25;;
65230;SDS011;51813;40.666;16.602;2023-08-12T04:18:14;5.50;;;4.90;;
65230;SDS011;51813;40.666;16.602;2023-08-12T04:20:39;5.63;;;4.88;;
65230;SDS011;51813;40.666;16.602;2023-08-12T04:23:05;5.85;;;5.00;;
65230;SDS011;51813;40.666;16.602;2023-08-12T04:25:31;6.15;;;4.93;;
65230;SDS011;51813;40.666;16.602;2023-08-12T04:27:56;5.32;;;4.78;;
65230;SDS011;51813;40.666;16.602;2023-08-12T04:30:23;5.30;;;4.75;;
65230;SDS011;51813;40.666;16.602;2023-08-12T04:32:49;5.72;;;5.07;;
65230;SDS011;51813;40.666;16.602;2023-08-12T04:35:14;5.53;;;4.90;;
65230;SDS011;51813;40.666;16.602;2023-08-12T04:37:40;5.80;;;4.90;;
65230;SDS011;51813;40.666;16.602;2023-08-12T04:40:06;5.50;;;4.90;;
65230;SDS011;51813;40.666;16.602;2023-08-12T04:42:33;6.25;;;5.13;;
65230;SDS011;51813;40.666;16.602;2023-08-12T04:44:58;7.10;;;5.05;;
65230;SDS011;51813;40.666;16.602;2023-08-12T04:47:24;5.82;;;4.65;;
65230;SDS011;51813;40.666;16.602;2023-08-12T04:49:50;5.60;;;4.97;;
65230;SDS011;51813;40.666;16.602;2023-08-12T04:52:16;5.80;;;4.82;;
65230;SDS011;51813;40.666;16.602;2023-08-12T04:54:42;6.13;;;4.90;;
65230;SDS011;51813;40.666;16.602;2023-08-12T04:57:08;5.88;;;4.97;;
65230;SDS011;51813;40.666;16.602;2023-08-12T04:59:33;5.53;;;4.93;;
65230;SDS011;51813;40.666;16.602;2023-08-12T05:01:59;5.55;;;5.00;;
65230;SDS011;51813;40.666;16.602;2023-08-12T05:04:24;6.03;;;5.03;;
65230;SDS011;51813;40.666;16.602;2023-08-12T05:06:50;6.07;;;4.72;;
65230;SDS011;51813;40.666;16.602;2023-08-12T05:09:16;6.78;;;5.00;;
65230;SDS011;51813;40.666;16.602;2023-08-12T05:11:42;6.65;;;4.70;;
65230;SDS011;51813;40.666;16.602;2023-08-12T05:14:07;5.05;;;4.55;;
65230;SDS011;51813;40.666;16.602;2023-08-12T05:16:33;6.03;;;4.88;;
65230;SDS011;51813;40.666;16.602;2023-08-12T05:18:59;6.38;;;4.63;;
65230;SDS011;51813;40.666;16.602;2023-08-12T05:21:24;6.05;;;4.78;;
65230;SDS011;51813;40.666;16.602;2023-08-12T05:23:50;6.28;;;4.85;;
65230;SDS011;51813;40.666;16.602;2023-08-12T05:26:16;5.53;;;4.65;;
65230;SDS011;51813;40.666;16.602;2023-08-12T05:28:41;5.68;;;4.75;;
65230;SDS011;51813;40.666;16.602;2023-08-12T05:31:07;5.13;;;4.60;;
65230;SDS011;51813;40.666;16.602;2023-08-12T05:33:33;5.75;;;4.88;;
65230;SDS011;51813;40.666;16.602;2023-08-12T05:35:59;6.63;;;4.65;;
65230;SDS011;51813;40.666;16.602;2023-08-12T05:38:24;5.78;;;4.22;;
65230;SDS011;51813;40.666;16.602;2023-08-12T05:40:50;5.78;;;4.60;;
65230;SDS011;51813;40.666;16.602;2023-08-12T05:43:16;5.72;;;4.30;;
65230;SDS011;51813;40.666;16.602;2023-08-12T05:45:41;4.70;;;4.05;;
65230;SDS011;51813;40.666;16.602;2023-08-12T05:48:07;5.70;;;4.45;;
65230;SDS011;51813;40.666;16.602;2023-08-12T05:50:33;5.30;;;4.60;;
65230;SDS011;51813;40.666;16.602;2023-08-12T05:52:59;5.30;;;4.00;;
65230;SDS011;51813;40.666;16.602;2023-08-12T05:55:24;5.57;;;4.07;;
65230;SDS011;51813;40.666;16.602;2023-08-12T05:57:50;5.28;;;4.28;;
65230;SDS011;51813;40.666;16.602;2023-08-12T06:00:16;6.25;;;4.32;;
65230;SDS011;51813;40.666;16.602;2023-08-12T06:02:41;4.63;;;4.05;;
65230;SDS011;51813;40.666;16.602;2023-08-12T06:05:07;5.05;;;4.10;;
65230;SDS011;51813;40.666;16.602;2023-08-12T06:07:33;5.53;;;4.32;;
65230;SDS011;51813;40.666;16.602;2023-08-12T06:10:00;4.95;;;4.10;;
65230;SDS011;51813;40.666;16.602;2023-08-12T06:12:26;4.93;;;3.95;;
65230;SDS011;51813;40.666;16.602;2023-08-12T06:14:51;6.00;;;3.90;;
65230;SDS011;51813;40.666;16.602;2023-08-12T06:17:17;6.35;;;4.25;;
65230;SDS011;51813;40.666;16.602;2023-08-12T06:19:43;5.68;;;4.20;;
65230;SDS011;51813;40.666;16.602;2023-08-12T06:22:09;4.50;;;3.78;;
65230;SDS011;51813;40.666;16.602;2023-08-12T06:24:35;5.28;;;3.95;;
65230;SDS011;51813;40.666;16.602;2023-08-12T06:27:00;4.45;;;3.85;;
65230;SDS011;51813;40.666;16.602;2023-08-12T06:29:26;5.32;;;3.53;;
65230;SDS011;51813;40.666;16.602;2023-08-12T06:31:52;4.47;;;3.63;;
65230;SDS011;51813;40.666;16.602;2023-08-12T06:34:18;6.10;;;3.65;;
65230;SDS011;51813;40.666;16.602;2023-08-12T06:36:44;5.32;;;3.42;;
65230;SDS011;51813;40.666;16.602;2023-08-12T06:39:09;4.68;;;3.38;;
65230;SDS011;51813;40.666;16.602;2023-08-12T06:41:35;5.07;;;3.47;;
65230;SDS011;51813;40.666;16.602;2023-08-12T06:44:01;8.43;;;3.95;;
65230;SDS011;51813;40.666;16.602;2023-08-12T06:46:28;5.93;;;3.25;;
65230;SDS011;51813;40.666;16.602;2023-08-12T06:48:55;6.55;;;3.50;;
65230;SDS011;51813;40.666;16.602;2023-08-12T06:51:21;7.93;;;3.42;;
65230;SDS011;51813;40.666;16.602;2023-08-12T06:53:47;12.98;;;3.90;;
65230;SDS011;51813;40.666;16.602;2023-08-12T06:56:12;7.93;;;4.05;;
65230;SDS011;51813;40.666;16.602;2023-08-12T06:58:38;6.03;;;3.35;;
65230;SDS011;51813;40.666;16.602;2023-08-12T07:01:04;5.45;;;3.10;;
65230;SDS011;51813;40.666;16.602;2023-08-12T07:03:29;4.75;;;3.40;;
65230;SDS011;51813;40.666;16.602;2023-08-12T07:05:55;4.50;;;3.17;;
65230;SDS011;51813;40.666;16.602;2023-08-12T07:08:21;5.63;;;3.20;;
65230;SDS011;51813;40.666;16.602;2023-08-12T07:10:47;5.68;;;3.38;;
65230;SDS011;51813;40.666;16.602;2023-08-12T07:13:13;5.15;;;3.35;;
65230;SDS011;51813;40.666;16.602;2023-08-12T07:15:38;4.80;;;2.85;;
65230;SDS011;51813;40.666;16.602;2023-08-12T07:18:04;4.10;;;3.03;;
65230;SDS011;51813;40.666;16.602;2023-08-12T07:20:30;5.45;;;3.10;;
65230;SDS011;51813;40.666;16.602;2023-08-12T07:22:56;5.63;;;3.25;;
65230;SDS011;51813;40.666;16.602;2023-08-12T07:25:21;5.07;;;3.38;;
65230;SDS011;51813;40.666;16.602;2023-08-12T07:27:47;5.90;;;3.47;;
65230;SDS011;51813;40.666;16.602;2023-08-12T07:30:13;5.15;;;3.15;;
65230;SDS011;51813;40.666;16.602;2023-08-12T07:32:39;4.75;;;3.53;;
65230;SDS011;51813;40.666;16.602;2023-08-12T07:35:04;5.47;;;3.50;;
65230;SDS011;51813;40.666;16.602;2023-08-12T07:37:31;5.32;;;3.50;;
65230;SDS011;51813;40.666;16.602;2023-08-12T07:39:57;5.32;;;4.22;;
65230;SDS011;51813;40.666;16.602;2023-08-12T07:42:22;6.57;;;3.80;;
65230;SDS011;51813;40.666;16.602;2023-08-12T07:44:48;5.30;;;3.72;;
65230;SDS011;51813;40.666;16.602;2023-08-12T07:47:14;6.13;;;3.42;;
65230;SDS011;51813;40.666;16.602;2023-08-12T07:49:40;4.05;;;3.38;;
65230;SDS011;51813;40.666;16.602;2023-08-12T07:52:06;6.30;;;3.67;;
65230;SDS011;51813;40.666;16.602;2023-08-12T07:54:32;5.50;;;3.67;;
65230;SDS011;51813;40.666;16.602;2023-08-12T07:56:58;4.65;;;4.00;;
65230;SDS011;51813;40.666;16.602;2023-08-12T07:59:23;4.72;;;3.90;;
65230;SDS011;51813;40.666;16.602;2023-08-12T08:01:50;5.35;;;3.63;;
65230;SDS011;51813;40.666;16.602;2023-08-12T08:04:16;6.15;;;3.97;;
65230;SDS011;51813;40.666;16.602;2023-08-12T08:06:42;5.72;;;4.03;;
65230;SDS011;51813;40.666;16.602;2023-08-12T08:09:08;5.88;;;4.00;;
65230;SDS011;51813;40.666;16.602;2023-08-12T08:11:34;4.65;;;3.75;;
65230;SDS011;51813;40.666;16.602;2023-08-12T08:14:00;6.07;;;4.07;;
65230;SDS011;51813;40.666;16.602;2023-08-12T08:16:26;5.20;;;4.28;;
65230;SDS011;51813;40.666;16.602;2023-08-12T08:18:52;6.25;;;4.30;;
65230;SDS011;51813;40.666;16.602;2023-08-12T08:21:18;5.38;;;4.55;;
65230;SDS011;51813;40.666;16.602;2023-08-12T08:23:43;4.85;;;4.22;;
65230;SDS011;51813;40.666;16.602;2023-08-12T08:26:09;4.82;;;4.05;;
65230;SDS011;51813;40.666;16.602;2023-08-12T08:28:35;5.72;;;4.25;;
65230;SDS011;51813;40.666;16.602;2023-08-12T08:31:01;6.03;;;4.32;;
65230;SDS011;51813;40.666;16.602;2023-08-12T08:33:27;4.80;;;4.30;;
65230;SDS011;51813;40.666;16.602;2023-08-12T08:35:53;5.18;;;4.22;;
65230;SDS011;51813;40.666;16.602;2023-08-12T08:38:19;5.90;;;4.47;;
65230;SDS011;51813;40.666;16.602;2023-08-12T08:40:45;5.35;;;4.32;;
65230;SDS011;51813;40.666;16.602;2023-08-12T08:43:11;5.45;;;4.63;;
65230;SDS011;51813;40.666;16.602;2023-08-12T08:45:40;4.95;;;4.32;;
65230;SDS011;51813;40.666;16.602;2023-08-12T08:48:08;6.32;;;4.28;;
65230;SDS011;51813;40.666;16.602;2023-08-12T08:50:36;4.70;;;4.10;;
65230;SDS011;51813;40.666;16.602;2023-08-12T08:53:02;5.18;;;4.28;;
65230;SDS011;51813;40.666;16.602;2023-08-12T08:55:31;5.38;;;4.47;;
65230;SDS011;51813;40.666;16.602;2023-08-12T08:57:57;5.35;;;4.38;;
65230;SDS011;51813;40.666;16.602;2023-08-12T09:00:24;5.43;;;4.45;;
65230;SDS011;51813;40.666;16.602;2023-08-12T09:02:50;5.85;;;4.32;;
65230;SDS011;51813;40.666;16.602;2023-08-12T09:05:16;5.22;;;4.65;;
65230;SDS011;51813;40.666;16.602;2023-08-12T09:07:43;6.13;;;4.60;;
65230;SDS011;51813;40.666;16.602;2023-08-12T09:10:10;7.07;;;5.13;;
65230;SDS011;51813;40.666;16.602;2023-08-12T09:12:37;5.38;;;4.60;;
65230;SDS011;51813;40.666;16.602;2023-08-12T09:15:03;6.50;;;4.75;;
65230;SDS011;51813;40.666;16.602;2023-08-12T09:17:31;6.75;;;4.80;;
65230;SDS011;51813;40.666;16.602;2023-08-12T09:19:57;6.20;;;4.40;;
65230;SDS011;51813;40.666;16.602;2023-08-12T09:22:24;5.88;;;4.70;;
65230;SDS011;51813;40.666;16.602;2023-08-12T09:24:55;5.65;;;5.00;;
65230;SDS011;51813;40.666;16.602;2023-08-12T09:27:22;6.20;;;4.85;;
65230;SDS011;51813;40.666;16.602;2023-08-12T09:29:49;5.95;;;4.88;;
65230;SDS011;51813;40.666;16.602;2023-08-12T09:32:21;7.65;;;4.78;;
65230;SDS011;51813;40.666;16.602;2023-08-12T09:34:54;5.90;;;5.10;;
65230;SDS011;51813;40.666;16.602;2023-08-12T09:37:21;5.68;;;4.82;;
65230;SDS011;51813;40.666;16.602;2023-08-12T09:39:49;6.22;;;4.78;;
65230;SDS011;51813;40.666;16.602;2023-08-12T09:42:18;6.40;;;5.13;;
65230;SDS011;51813;40.666;16.602;2023-08-12T09:44:44;8.07;;;4.65;;
65230;SDS011;51813;40.666;16.602;2023-08-12T09:47:10;6.70;;;5.18;;
65230;SDS011;51813;40.666;16.602;2023-08-12T09:49:36;6.25;;;4.53;;
65230;SDS011;51813;40.666;16.602;2023-08-12T09:52:03;6.95;;;4.45;;
65230;SDS011;51813;40.666;16.602;2023-08-12T09:54:33;5.75;;;4.50;;
65230;SDS011;51813;40.666;16.602;2023-08-12T09:57:00;6.38;;;4.72;;
65230;SDS011;51813;40.666;16.602;2023-08-12T09:59:29;7.60;;;5.00;;
65230;SDS011;51813;40.666;16.602;2023-08-12T10:01:57;5.45;;;4.95;;
65230;SDS011;51813;40.666;16.602;2023-08-12T10:04:24;5.35;;;4.85;;
65230;SDS011;51813;40.666;16.602;2023-08-12T10:06:54;5.40;;;4.90;;
65230;SDS011;51813;40.666;16.602;2023-08-12T10:09:20;7.93;;;4.72;;
65230;SDS011;51813;40.666;16.602;2023-08-12T10:11:46;6.75;;;4.78;;
65230;SDS011;51813;40.666;16.602;2023-08-12T10:14:13;7.60;;;5.18;;
65230;SDS011;51813;40.666;16.602;2023-08-12T10:16:39;5.50;;;4.90;;
65230;SDS011;51813;40.666;16.602;2023-08-12T10:19:10;6.18;;;4.78;;
65230;SDS011;51813;40.666;16.602;2023-08-12T10:21:37;6.45;;;5.22;;
65230;SDS011;51813;40.666;16.602;2023-08-12T10:24:03;6.05;;;4.68;;
65230;SDS011;51813;40.666;16.602;2023-08-12T10:26:30;6.88;;;5.03;;
65230;SDS011;51813;40.666;16.602;2023-08-12T10:28:59;6.82;;;5.22;;
65230;SDS011;51813;40.666;16.602;2023-08-12T10:31:26;5.35;;;4.70;;
65230;SDS011;51813;40.666;16.602;2023-08-12T10:36:22;5.35;;;4.65;;
65230;SDS011;51813;40.666;16.602;2023-08-12T10:38:48;5.93;;;5.32;;
65230;SDS011;51813;40.666;16.602;2023-08-12T10:41:21;5.80;;;5.20;;
65230;SDS011;51813;40.666;16.602;2023-08-12T10:43:48;6.55;;;4.75;;
65230;SDS011;51813;40.666;16.602;2023-08-12T10:46:45;6.70;;;5.20;;
65230;SDS011;51813;40.666;16.602;2023-08-12T10:49:14;5.43;;;4.93;;
65230;SDS011;51813;40.666;16.602;2023-08-12T10:54:10;5.97;;;5.35;;
65230;SDS011;51813;40.666;16.602;2023-08-12T10:57:06;5.97;;;5.40;;
65230;SDS011;51813;40.666;16.602;2023-08-12T11:02:31;6.57;;;5.05;;
65230;SDS011;51813;40.666;16.602;2023-08-12T11:05:09;5.80;;;5.20;;
65230;SDS011;51813;40.666;16.602;2023-08-12T11:10:05;5.63;;;5.13;;
65230;SDS011;51813;40.666;16.602;2023-08-12T11:12:54;6.80;;;5.32;;
65230;SDS011;51813;40.666;16.602;2023-08-12T11:17:57;7.82;;;5.70;;
65230;SDS011;51813;40.666;16.602;2023-08-12T11:20:23;5.50;;;4.82;;
65230;SDS011;51813;40.666;16.602;2023-08-12T11:22:49;5.25;;;4.75;;
65230;SDS011;51813;40.666;16.602;2023-08-12T11:25:16;5.63;;;5.03;;
65230;SDS011;51813;40.666;16.602;2023-08-12T11:30:09;5.70;;;5.20;;
65230;SDS011;51813;40.666;16.602;2023-08-12T11:32:40;6.28;;;4.93;;
65230;SDS011;51813;40.666;16.602;2023-08-12T11:35:08;6.32;;;5.53;;
65230;SDS011;51813;40.666;16.602;2023-08-12T11:37:36;7.95;;;5.60;;
65230;SDS011;51813;40.666;16.602;2023-08-12T11:40:03;5.93;;;5.43;;
65230;SDS011;51813;40.666;16.602;2023-08-12T11:42:30;6.10;;;5.50;;
65230;SDS011;51813;40.666;16.602;2023-08-12T11:44:56;5.90;;;5.30;;
65230;SDS011;51813;40.666;16.602;2023-08-12T11:47:22;6.65;;;5.95;;
65230;SDS011;51813;40.666;16.602;2023-08-12T11:49:48;9.13;;;6.93;;
65230;SDS011;51813;40.666;16.602;2023-08-12T11:52:14;7.07;;;6.00;;
65230;SDS011;51813;40.666;16.602;2023-08-12T11:54:40;7.97;;;6.40;;
65230;SDS011;51813;40.666;16.602;2023-08-12T11:57:06;8.27;;;6.82;;
65230;SDS011;51813;40.666;16.602;2023-08-12T11:59:31;7.65;;;6.95;;
65230;SDS011;51813;40.666;16.602;2023-08-12T12:01:57;8.82;;;6.22;;
65230;SDS011;51813;40.666;16.602;2023-08-12T12:04:26;7.05;;;5.78;;
65230;SDS011;51813;40.666;16.602;2023-08-12T12:06:52;7.32;;;5.85;;
65230;SDS011;51813;40.666;16.602;2023-08-12T12:09:18;7.05;;;6.05;;
65230;SDS011;51813;40.666;16.602;2023-08-12T12:11:45;6.18;;;5.57;;
65230;SDS011;51813;40.666;16.602;2023-08-12T12:14:11;6.40;;;5.80;;
65230;SDS011;51813;40.666;16.602;2023-08-12T12:16:37;7.20;;;5.90;;
65230;SDS011;51813;40.666;16.602;2023-08-12T12:19:17;6.35;;;5.70;;
65230;SDS011;51813;40.666;16.602;2023-08-12T12:21:45;6.85;;;6.07;;
65230;SDS011;51813;40.666;16.602;2023-08-12T12:24:13;6.70;;;6.00;;
65230;SDS011;51813;40.666;16.602;2023-08-12T12:26:39;6.20;;;5.57;;
65230;SDS011;51813;40.666;16.602;2023-08-12T12:29:05;5.80;;;5.20;;
65230;SDS011;51813;40.666;16.602;2023-08-12T12:31:32;6.65;;;5.32;;
65230;SDS011;51813;40.666;16.602;2023-08-12T12:33:59;6.13;;;5.53;;
65230;SDS011;51813;40.666;16.602;2023-08-12T12:36:25;6.75;;;6.15;;
65230;SDS011;51813;40.666;16.602;2023-08-12T12:38:51;7.63;;;5.70;;
65230;SDS011;51813;40.666;16.602;2023-08-12T12:41:17;6.85;;;6.13;;
65230;SDS011;51813;40.666;16.602;2023-08-12T12:43:43;6.45;;;5.68;;
65230;SDS011;51813;40.666;16.602;2023-08-12T12:46:09;6.90;;;6.20;;
65230;SDS011;51813;40.666;16.602;2023-08-12T12:48:34;6.65;;;5.95;;
65230;SDS011;51813;40.666;16.602;2023-08-12T12:51:01;6.20;;;5.60;;
65230;SDS011;51813;40.666;16.602;2023-08-12T12:53:26;6.60;;;6.00;;
65230;SDS011;51813;40.666;16.602;2023-08-12T12:55:52;6.00;;;5.40;;
65230;SDS011;51813;40.666;16.602;2023-08-12T12:58:18;6.35;;;5.68;;
65230;SDS011;51813;40.666;16.602;2023-08-12T13:00:44;7.15;;;6.05;;
65230;SDS011;51813;40.666;16.602;2023-08-12T13:03:09;6.07;;;5.47;;
65230;SDS011;51813;40.666;16.602;2023-08-12T13:05:35;7.60;;;5.70;;
65230;SDS011;51813;40.666;16.602;2023-08-12T13:08:00;5.90;;;5.30;;
65230;SDS011;51813;40.666;16.602;2023-08-12T13:10:26;6.40;;;5.72;;
65230;SDS011;51813;40.666;16.602;2023-08-12T13:12:52;8.77;;;6.43;;
65230;SDS011;51813;40.666;16.602;2023-08-12T13:15:17;6.80;;;5.70;;
65230;SDS011;51813;40.666;16.602;2023-08-12T13:17:43;6.30;;;5.70;;
65230;SDS011;51813;40.666;16.602;2023-08-12T13:20:09;6.63;;;5.97;;
65230;SDS011;51813;40.666;16.602;2023-08-12T13:22:35;6.50;;;5.90;;
65230;SDS011;51813;40.666;16.602;2023-08-12T13:25:01;7.53;;;5.88;;
65230;SDS011;51813;40.666;16.602;2023-08-12T13:27:27;6.70;;;6.00;;
65230;SDS011;51813;40.666;16.602;2023-08-12T13:29:52;6.93;;;5.97;;
65230;SDS011;51813;40.666;16.602;2023-08-12T13:32:18;7.03;;;5.47;;
65230;SDS011;51813;40.666;16.602;2023-08-12T13:34:44;7.20;;;6.00;;
65230;SDS011;51813;40.666;16.602;2023-08-12T13:37:12;7.22;;;6.40;;
65230;SDS011;51813;40.666;16.602;2023-08-12T13:39:37;6.22;;;5.65;;
65230;SDS011;51813;40.666;16.602;2023-08-12T13:42:03;6.82;;;5.70;;
65230;SDS011;51813;40.666;16.602;2023-08-12T13:44:29;6.60;;;5.32;;
65230;SDS011;51813;40.666;16.602;2023-08-12T13:46:55;7.00;;;5.50;;
65230;SDS011;51813;40.666;16.602;2023-08-12T13:49:20;6.75;;;5.95;;
65230;SDS011;51813;40.666;16.602;2023-08-12T13:51:46;6.47;;;5.65;;
65230;SDS011;51813;40.666;16.602;2023-08-12T13:54:12;6.22;;;5.60;;
65230;SDS011;51813;40.666;16.602;2023-08-12T13:56:37;6.45;;;5.85;;
65230;SDS011;51813;40.666;16.602;2023-08-12T13:59:03;5.85;;;4.80;;
65230;SDS011;51813;40.666;16.602;2023-08-12T14:01:29;5.90;;;5.30;;
65230;SDS011;51813;40.666;16.602;2023-08-12T14:03:55;6.03;;;5.43;;
65230;SDS011;51813;40.666;16.602;2023-08-12T14:06:20;5.95;;;5.20;;
65230;SDS011;51813;40.666;16.602;2023-08-12T14:08:46;5.15;;;4.60;;
65230;SDS011;51813;40.666;16.602;2023-08-12T14:11:12;5.63;;;5.07;;
65230;SDS011;51813;40.666;16.602;2023-08-12T14:13:37;5.63;;;5.13;;
65230;SDS011;51813;40.666;16.602;2023-08-12T14:16:03;6.03;;;5.13;;
65230;SDS011;51813;40.666;16.602;2023-08-12T14:18:29;5.43;;;4.70;;
65230;SDS011;51813;40.666;16.602;2023-08-12T14:20:55;6.25;;;4.35;;
65230;SDS011;51813;40.666;16.602;2023-08-12T14:23:20;5.43;;;4.10;;
65230;SDS011;51813;40.666;16.602;2023-08-12T14:25:46;5.60;;;4.75;;
65230;SDS011;51813;40.666;16.602;2023-08-12T14:28:11;6.15;;;3.80;;
65230;SDS011;51813;40.666;16.602;2023-08-12T14:30:37;4.80;;;3.90;;
65230;SDS011;51813;40.666;16.602;2023-08-12T14:33:03;4.68;;;4.18;;
65230;SDS011;51813;40.666;16.602;2023-08-12T14:35:29;4.63;;;3.80;;
65230;SDS011;51813;40.666;16.602;2023-08-12T14:37:54;4.03;;;3.63;;
65230;SDS011;51813;40.666;16.602;2023-08-12T14:40:20;5.60;;;3.80;;
65230;SDS011;51813;40.666;16.602;2023-08-12T14:42:46;4.22;;;3.80;;
65230;SDS011;51813;40.666;16.602;2023-08-12T14:45:11;5.03;;;3.92;;
65230;SDS011;51813;40.666;16.602;2023-08-12T14:47:37;4.75;;;3.78;;
65230;SDS011;51813;40.666;16.602;2023-08-12T14:50:03;4.10;;;3.70;;
65230;SDS011;51813;40.666;16.602;2023-08-12T14:52:29;4.75;;;3.70;;
65230;SDS011;51813;40.666;16.602;2023-08-12T14:54:55;4.22;;;3.30;;